Time;durP1;ratioP1;P1;durP2;ratioP2;P2;SDS_P1;SDS_P2;PMS_P1;PMS_P2;Temp;Humidity;BMP_temperature;BMP_pressure;BME280_temperature;BME280_humidity;BME280_pressure;Samples;Min_cycle;Max_cycle;Signal;HPM_P1;HPM_P2
2023/07/14 00:11:14;;;;;;;17.30;4.70;;;15.10;99.90;;;;;;1948395;72;26928;-90
2023/07/14 00:14:03;;;;;;;26.40;4.60;;;15.10;99.90;;;;;;1936376;72;25198;-90
2023/07/14 00:16:52;;;;;;;24.70;5.40;;;15.10;99.90;;;;;;1928037;72;25251;-90
2023/07/14 00:19:41;;;;;;;27.97;4.83;;;15.10;99.90;;;;;;1941332;72;25154;-90
2023/07/14 00:22:31;;;;;;;23.43;5.40;;;15.00;99.90;;;;;;1934446;73;25182;-90
2023/07/14 00:25:23;;;;;;;27.53;5.30;;;15.00;99.90;;;;;;1935608;73;25695;-90
2023/07/14 00:28:19;;;;;;;20.77;5.07;;;15.00;99.90;;;;;;1917494;72;25341;-91
2023/07/14 00:31:14;;;;;;;20.30;5.00;;;15.00;99.90;;;;;;1930559;73;25719;-90
2023/07/14 00:34:04;;;;;;;25.00;5.13;;;15.00;99.90;;;;;;1915222;73;25778;-90
2023/07/14 00:36:53;;;;;;;32.77;5.57;;;15.00;99.90;;;;;;1942509;73;25205;-90
2023/07/14 00:39:43;;;;;;;22.70;5.37;;;14.90;99.90;;;;;;1941307;73;25225;-91
2023/07/14 00:42:32;;;;;;;24.43;6.00;;;14.90;99.90;;;;;;1919830;73;25211;-91
2023/07/14 00:45:23;;;;;;;28.53;5.57;;;14.80;99.90;;;;;;1890380;75;25183;-90
2023/07/14 00:48:15;;;;;;;23.03;5.37;;;14.80;99.90;;;;;;1852405;76;25269;-91
2023/07/14 00:51:08;;;;;;;31.10;5.77;;;14.80;99.90;;;;;;1851289;76;25188;-90
2023/07/14 01:20:11;;;;;;;25.50;5.17;;;14.80;99.90;;;;;;2037135;69;26968;-90
2023/07/14 01:23:07;;;;;;;22.20;5.23;;;14.80;99.90;;;;;;1953926;73;25229;-90
2023/07/14 01:28:55;;;;;;;22.23;4.77;;;14.70;99.90;;;;;;1943353;72;27004;-89
2023/07/14 01:31:44;;;;;;;21.57;5.40;;;14.70;99.90;;;;;;1923833;73;25235;-89
2023/07/14 01:34:33;;;;;;;17.93;5.10;;;14.60;99.90;;;;;;1922911;73;25817;-91
2023/07/14 01:37:23;;;;;;;27.13;5.53;;;14.60;99.90;;;;;;1922958;73;25655;-91
2023/07/14 01:43:04;;;;;;;26.83;4.90;;;14.60;99.90;;;;;;1937733;72;27106;-90
2023/07/14 01:49:16;;;;;;;17.03;4.87;;;14.60;99.90;;;;;;1967562;71;27479;-90
2023/07/14 01:52:08;;;;;;;19.83;5.27;;;14.60;99.90;;;;;;1985212;72;25150;-90
2023/07/14 01:55:00;;;;;;;25.37;5.37;;;14.60;99.90;;;;;;1983541;72;25208;-90
2023/07/14 01:57:51;;;;;;;25.17;4.90;;;14.60;99.90;;;;;;1980870;72;25586;-90
2023/07/14 02:00:43;;;;;;;22.87;5.57;;;14.60;99.90;;;;;;1980573;72;25277;-90
2023/07/14 02:03:36;;;;;;;22.87;4.87;;;14.50;99.90;;;;;;1978801;72;25228;-90
2023/07/14 02:06:25;;;;;;;21.43;5.33;;;14.50;99.90;;;;;;1980355;70;25710;-90
2023/07/14 02:09:17;;;;;;;21.13;4.93;;;14.50;99.90;;;;;;1983361;72;25171;-90
2023/07/14 02:12:11;;;;;;;23.53;4.93;;;14.50;99.90;;;;;;1978626;72;25280;-90
2023/07/14 02:15:03;;;;;;;21.03;5.30;;;14.40;99.90;;;;;;1989573;70;25227;-90
2023/07/14 02:17:54;;;;;;;28.33;5.27;;;14.50;99.90;;;;;;1986472;72;25295;-90
2023/07/14 02:20:47;;;;;;;22.30;5.50;;;14.40;99.90;;;;;;1971752;72;25193;-90
2023/07/14 02:26:55;;;;;;;17.53;4.90;;;14.50;99.90;;;;;;2072860;68;26496;-90
2023/07/14 02:29:44;;;;;;;23.77;4.90;;;14.40;99.90;;;;;;2013263;71;25156;-90
2023/07/14 02:35:21;;;;;;;14.40;4.83;;;14.40;99.90;;;;;;1952600;72;27088;-90
2023/07/14 02:38:14;;;;;;;21.67;4.77;;;14.40;99.90;;;;;;1930287;73;25288;-90
2023/07/14 02:43:56;;;;;;;23.80;5.30;;;14.50;99.90;;;;;;1940530;72;27011;-90
2023/07/14 02:46:47;;;;;;;24.77;4.83;;;14.50;99.90;;;;;;1925853;72;25204;-90
2023/07/14 02:49:36;;;;;;;16.67;4.30;;;14.50;99.90;;;;;;1877970;75;25802;-93
2023/07/14 02:52:25;;;;;;;10.37;3.50;;;14.50;99.90;;;;;;1882907;75;25210;-90
2023/07/14 02:55:14;;;;;;;17.83;4.07;;;14.50;99.90;;;;;;1902668;75;25247;-90
2023/07/14 02:58:04;;;;;;;15.10;4.27;;;14.60;99.90;;;;;;1890042;75;25253;-90
2023/07/14 03:00:53;;;;;;;17.93;3.77;;;14.50;99.90;;;;;;1909823;73;25314;-90
2023/07/14 03:03:44;;;;;;;13.33;4.33;;;14.50;99.90;;;;;;1932130;72;25638;-90
2023/07/14 03:09:16;;;;;;;17.53;4.13;;;14.60;99.90;;;;;;1950035;72;26846;-90
2023/07/14 03:14:45;;;;;;;8.60;3.70;;;14.60;99.90;;;;;;1954432;72;27098;-90
2023/07/14 03:17:34;;;;;;;17.93;4.23;;;14.60;99.90;;;;;;1921607;73;25462;-89
2023/07/14 03:20:23;;;;;;;15.03;3.53;;;14.60;99.90;;;;;;1918347;73;25237;-90
2023/07/14 03:23:12;;;;;;;16.00;3.70;;;14.70;99.90;;;;;;1917828;73;25201;-90
2023/07/14 03:26:03;;;;;;;14.80;3.93;;;14.90;99.90;;;;;;1923823;73;25223;-91
2023/07/14 03:28:52;;;;;;;17.07;3.47;;;15.10;99.90;;;;;;1916593;73;25704;-91
2023/07/14 03:31:40;;;;;;;13.53;3.70;;;15.40;99.90;;;;;;1932181;73;25283;-91
2023/07/14 03:34:29;;;;;;;12.90;3.40;;;15.70;99.90;;;;;;1926219;73;25191;-91
2023/07/14 03:37:18;;;;;;;11.27;3.07;;;16.00;99.90;;;;;;1928455;73;25674;-91
2023/07/14 03:42:50;;;;;;;14.07;3.20;;;16.70;99.90;;;;;;1968435;71;27415;-90
2023/07/14 03:48:26;;;;;;;12.60;3.03;;;16.80;99.90;;;;;;1948434;72;26955;-90
2023/07/14 03:51:14;;;;;;;9.97;2.97;;;17.20;99.90;;;;;;1923452;72;25669;-90
2023/07/14 03:56:45;;;;;;;8.07;2.47;;;17.40;99.90;;;;;;1928998;72;27507;-90
2023/07/14 03:59:34;;;;;;;10.90;2.80;;;17.50;99.90;;;;;;1873671;76;25281;-90
2023/07/14 04:02:23;;;;;;;10.60;2.67;;;17.80;99.90;;;;;;1809784;78;25204;-90
2023/07/14 04:05:14;;;;;;;10.93;2.87;;;17.80;99.90;;;;;;1901547;74;26487;-90
2023/07/14 04:08:04;;;;;;;12.30;2.53;;;17.70;99.90;;;;;;1852076;76;25180;-90
2023/07/14 04:10:52;;;;;;;11.33;2.53;;;17.80;99.90;;;;;;1838802;76;25216;-90
2023/07/14 04:13:41;;;;;;;10.20;2.47;;;17.70;99.90;;;;;;1898493;74;25297;-90
2023/07/14 04:16:30;;;;;;;12.47;2.70;;;17.70;99.90;;;;;;1857861;76;25234;-90
2023/07/14 04:19:19;;;;;;;8.43;2.63;;;17.90;99.90;;;;;;1898591;74;25288;-90
2023/07/14 04:22:07;;;;;;;9.67;2.23;;;17.90;99.90;;;;;;1885528;74;25818;-90
2023/07/14 04:25:16;;;;;;;8.83;2.50;;;17.60;99.90;;;;;;1857751;76;25805;-90
2023/07/14 04:28:06;;;;;;;9.97;2.60;;;17.20;99.90;;;;;;1841093;76;25233;-90
2023/07/14 04:33:36;;;;;;;8.80;2.50;;;16.90;99.90;;;;;;1970508;71;27029;-90
2023/07/14 04:36:24;;;;;;;7.13;2.70;;;16.90;99.90;;;;;;1949462;72;25284;-90
2023/07/14 04:41:58;;;;;;;10.20;2.57;;;17.40;99.90;;;;;;1939664;72;26866;-90
2023/07/14 04:44:46;;;;;;;10.73;2.60;;;17.60;99.90;;;;;;1911595;73;25727;-90
2023/07/14 04:47:35;;;;;;;7.90;2.10;;;18.00;99.90;;;;;;1906951;75;25219;-90
2023/07/14 04:50:23;;;;;;;8.53;2.83;;;18.60;99.90;;;;;;1897199;73;25314;-91
2023/07/14 04:53:12;;;;;;;9.63;2.03;;;18.70;99.90;;;;;;1900693;73;25208;-91
2023/07/14 04:56:01;;;;;;;8.03;2.10;;;18.60;99.90;;;;;;1896654;74;25250;-91
2023/07/14 05:15:00;;;;;;;5.00;1.70;;;18.40;99.90;;;;;;1948878;72;27035;-91
2023/07/14 05:17:49;;;;;;;6.70;2.10;;;18.40;99.90;;;;;;1935589;73;25275;-91
2023/07/14 05:20:39;;;;;;;6.53;1.87;;;18.40;99.90;;;;;;1949530;73;25243;-90
2023/07/14 05:23:28;;;;;;;5.90;1.90;;;18.70;99.90;;;;;;1921477;73;25237;-90
2023/07/14 05:26:17;;;;;;;6.63;1.90;;;19.00;99.90;;;;;;1909772;73;25274;-90
2023/07/14 05:29:06;;;;;;;6.13;1.90;;;19.10;99.90;;;;;;1923445;73;25310;-90
2023/07/14 05:31:55;;;;;;;5.90;1.70;;;19.10;99.90;;;;;;1918376;73;25219;-91
2023/07/14 05:34:44;;;;;;;5.60;1.43;;;19.10;99.90;;;;;;1925721;73;25243;-90
2023/07/14 05:37:33;;;;;;;6.93;1.70;;;19.00;99.90;;;;;;1929432;73;25303;-90
2023/07/14 05:40:22;;;;;;;1.90;1.47;;;19.10;99.90;;;;;;1934046;73;25712;-90
2023/07/14 05:43:11;;;;;;;5.23;1.70;;;19.00;99.90;;;;;;1895108;75;25890;-90
2023/07/14 05:59:07;;;;;;;3.87;2.80;;;19.20;99.90;;;;;;1902448;73;27468;-89
2023/07/14 06:17:44;;;;;;;4.30;1.37;;;19.70;99.90;;;;;;1945836;71;27118;-90
2023/07/14 06:20:33;;;;;;;4.40;1.87;;;19.50;99.90;;;;;;1945747;72;26019;-90
2023/07/14 06:23:22;;;;;;;3.63;1.40;;;19.50;99.90;;;;;;1930006;72;25213;-90
2023/07/14 06:26:11;;;;;;;2.13;1.20;;;19.60;99.90;;;;;;1942819;73;25232;-90
2023/07/14 06:29:00;;;;;;;4.30;1.37;;;19.50;99.90;;;;;;1939908;73;25305;-90
2023/07/14 06:31:48;;;;;;;3.83;1.23;;;19.40;99.90;;;;;;1912636;73;25714;-90
2023/07/14 06:34:37;;;;;;;2.60;1.30;;;19.40;99.90;;;;;;1935653;73;25220;-90
2023/07/14 06:37:29;;;;;;;1.83;1.30;;;19.60;99.90;;;;;;1926061;73;25372;-90
2023/07/14 06:40:18;;;;;;;3.17;1.40;;;19.60;99.90;;;;;;1930420;72;25757;-90
2023/07/14 06:45:51;;;;;;;4.33;1.00;;;19.30;99.90;;;;;;1929889;72;26565;-90
2023/07/14 06:48:40;;;;;;;3.10;1.30;;;19.40;99.90;;;;;;1887312;74;25710;-90
2023/07/14 06:51:30;;;;;;;3.33;1.10;;;19.70;99.90;;;;;;1912350;73;25840;-90
2023/07/14 07:08:17;;;;;;;4.43;1.40;;;19.50;99.90;;;;;;1942829;73;27107;-89
2023/07/14 07:13:51;;;;;;;2.40;1.27;;;20.20;99.90;;;;;;1947221;72;27549;-89
2023/07/14 07:16:40;;;;;;;3.03;1.23;;;19.70;99.90;;;;;;1890650;75;25519;-90
2023/07/14 07:19:31;;;;;;;1.50;1.20;;;20.00;99.90;;;;;;1832400;77;25854;-90
2023/07/14 07:22:20;;;;;;;3.70;1.20;;;20.00;99.90;;;;;;1859345;76;25315;-90
2023/07/14 07:25:09;;;;;;;2.90;1.10;;;20.20;99.90;;;;;;1827479;77;25726;-90
2023/07/14 07:30:52;;;;;;;2.13;1.10;;;20.30;99.90;;;;;;1985305;69;27005;-90
2023/07/14 07:48:07;;;;;;;3.73;0.90;;;20.10;99.90;;;;;;1922202;73;26877;-90
2023/07/14 08:07:43;;;;;;;0.80;0.80;;;20.50;99.90;;;;;;1939454;72;27316;-90
2023/07/14 08:13:15;;;;;;;4.07;1.10;;;20.20;99.90;;;;;;1971821;71;27020;-90
2023/07/14 08:16:04;;;;;;;6.90;1.27;;;20.50;99.90;;;;;;1938322;73;25774;-90
2023/07/14 08:18:53;;;;;;;2.27;1.10;;;20.80;99.90;;;;;;1942009;72;25209;-90
2023/07/14 08:24:23;;;;;;;2.03;1.20;;;21.00;99.90;;;;;;1939222;72;27228;-90
2023/07/14 08:27:12;;;;;;;1.53;1.23;;;20.90;99.90;;;;;;1849080;77;25718;-91
2023/07/14 08:30:00;;;;;;;1.43;1.00;;;21.00;99.90;;;;;;1852280;77;25254;-91
2023/07/14 08:36:06;;;;;;;2.30;1.10;;;21.10;99.90;;;;;;2021299;70;26286;-91
2023/07/14 08:38:55;;;;;;;2.27;1.20;;;20.90;99.90;;;;;;1974674;71;25781;-91
2023/07/14 08:55:56;;;;;;;2.53;1.30;;;20.80;99.90;;;;;;1931145;73;27902;-90
2023/07/14 09:01:41;;;;;;;2.90;0.93;;;21.20;99.90;;;;;;1952822;72;27012;-90
2023/07/14 09:07:13;;;;;;;3.60;1.10;;;21.60;99.90;;;;;;1896155;74;27151;-89
2023/07/14 09:10:02;;;;;;;4.20;1.50;;;21.50;99.90;;;;;;1862074;76;25757;-90
2023/07/14 09:12:55;;;;;;;3.27;1.57;;;21.00;99.90;;;;;;1849879;76;25282;-91
2023/07/14 09:15:45;;;;;;;6.60;1.20;;;21.20;99.90;;;;;;1856101;76;25307;-91
2023/07/14 09:22:28;;;;;;;1.70;1.10;;;21.20;99.90;;;;;;1960652;71;26259;-90
2023/07/14 09:25:20;;;;;;;5.50;1.40;;;21.00;99.90;;;;;;1945290;73;25302;-90
2023/07/14 09:28:14;;;;;;;5.50;1.43;;;21.10;99.90;;;;;;2015779;70;25196;-90
2023/07/14 09:34:04;;;;;;;2.23;1.20;;;20.80;99.90;;;;;;1962482;72;27487;-91
2023/07/14 09:39:47;;;;;;;5.73;1.30;;;20.90;99.90;;;;;;1947294;72;26586;-90
2023/07/14 09:45:26;;;;;;;4.73;1.30;;;21.20;99.90;;;;;;1953030;72;27389;-90
2023/07/14 09:51:04;;;;;;;2.60;1.17;;;21.10;99.90;;;;;;1928904;72;27426;-91
2023/07/14 09:54:01;;;;;;;2.93;1.20;;;21.40;99.90;;;;;;1862216;76;25796;-90
2023/07/14 09:56:50;;;;;;;3.03;1.10;;;21.30;99.90;;;;;;1820376;77;25353;-90
2023/07/14 10:02:35;;;;;;;2.10;1.27;;;21.40;99.90;;;;;;1872354;75;27137;-89
2023/07/14 10:05:47;;;;;;;0.90;0.90;;;21.30;99.90;;;;;;1852826;75;25237;-90
2023/07/14 10:08:41;;;;;;;3.03;1.10;;;21.40;99.90;;;;;;1856167;77;25230;-90
2023/07/14 10:11:33;;;;;;;1.53;0.90;;;21.60;99.90;;;;;;1806917;76;25273;-90
2023/07/14 10:14:25;;;;;;;2.87;1.10;;;21.80;99.90;;;;;;1850514;76;25256;-90
2023/07/14 10:20:16;;;;;;;3.80;1.00;;;21.80;99.90;;;;;;1951281;72;27849;-90
2023/07/14 10:23:07;;;;;;;0.97;0.97;;;21.90;99.90;;;;;;1920758;73;25375;-91
2023/07/14 10:26:03;;;;;;;0.80;0.80;;;22.00;99.90;;;;;;1897397;75;25238;-91
2023/07/14 10:28:53;;;;;;;2.20;0.93;;;21.90;99.90;;;;;;1868745;75;25699;-90
2023/07/14 10:37:15;;;;;;;1.03;0.93;;;21.60;99.90;;;;;;1976379;71;26991;-91
2023/07/14 10:40:09;;;;;;;1.00;0.83;;;21.20;99.90;;;;;;2004832;70;25687;-90
2023/07/14 10:43:02;;;;;;;0.90;0.90;;;21.30;99.90;;;;;;1974449;72;25258;-91
2023/07/14 11:02:02;;;;;;;1.60;1.00;;;22.40;99.90;;;;;;1936195;72;27092;-91
2023/07/14 11:04:55;;;;;;;3.37;1.00;;;22.00;99.90;;;;;;1907538;75;25285;-90
2023/07/14 11:27:40;;;;;;;1.17;1.00;;;22.00;99.90;;;;;;1956356;72;27539;-90
2023/07/14 11:30:31;;;;;;;1.50;0.97;;;22.20;99.90;;;;;;1918062;73;25244;-91
2023/07/14 11:33:22;;;;;;;1.10;1.10;;;22.00;99.90;;;;;;1922715;73;25276;-91
2023/07/14 11:36:15;;;;;;;0.97;0.97;;;22.00;99.90;;;;;;1923819;73;25676;-90
2023/07/14 11:41:52;;;;;;;3.40;1.20;;;21.90;99.90;;;;;;1932398;72;27505;-90
2023/07/14 11:44:41;;;;;;;8.03;1.10;;;21.80;99.90;;;;;;1916154;73;25245;-90
2023/07/14 11:50:30;;;;;;;1.57;1.17;;;21.80;99.90;;;;;;1956004;72;27033;-91
2023/07/14 11:53:23;;;;;;;4.07;1.20;;;22.00;99.90;;;;;;1934859;73;25250;-92
2023/07/14 11:56:23;;;;;;;3.77;1.20;;;22.00;99.90;;;;;;1931973;73;25296;-92
2023/07/14 11:59:19;;;;;;;1.63;1.00;;;22.00;99.90;;;;;;1922667;73;25224;-91
2023/07/14 12:02:30;;;;;;;1.40;1.30;;;22.00;99.90;;;;;;1941060;73;25313;-91
2023/07/14 12:09:13;;;;;;;2.73;1.20;;;21.70;99.90;;;;;;1917893;72;26736;-91
2023/07/14 12:12:03;;;;;;;1.40;1.07;;;21.80;99.90;;;;;;1899773;73;25310;-91
2023/07/14 12:14:53;;;;;;;2.90;1.27;;;21.80;99.90;;;;;;1975429;70;25284;-91
2023/07/14 12:17:48;;;;;;;1.97;1.40;;;21.60;99.90;;;;;;1985787;71;25274;-91
2023/07/14 12:20:39;;;;;;;7.67;1.10;;;21.60;99.90;;;;;;1987696;71;25660;-91
2023/07/14 12:23:49;;;;;;;2.10;1.57;;;21.80;99.90;;;;;;1981257;71;25648;-91
2023/07/14 12:26:41;;;;;;;2.93;1.40;;;21.70;99.90;;;;;;1975620;71;25276;-91
2023/07/14 12:29:30;;;;;;;6.03;1.37;;;21.40;99.90;;;;;;1987901;71;25744;-91
2023/07/14 12:32:22;;;;;;;3.90;1.40;;;21.50;99.90;;;;;;1986768;70;25342;-90
2023/07/14 12:35:16;;;;;;;4.30;1.30;;;21.30;99.90;;;;;;1996827;70;25728;-91
2023/07/14 12:38:11;;;;;;;1.67;1.37;;;21.40;99.90;;;;;;1996236;71;25247;-91
2023/07/14 12:41:03;;;;;;;1.93;1.37;;;21.40;99.90;;;;;;1979649;71;25728;-91
2023/07/14 12:43:54;;;;;;;2.50;1.20;;;21.40;99.90;;;;;;1978754;72;25675;-91
2023/07/14 12:46:43;;;;;;;1.43;1.20;;;21.70;99.90;;;;;;1986612;72;25316;-91
2023/07/14 12:49:36;;;;;;;1.93;1.20;;;21.50;99.90;;;;;;1977570;72;25156;-91
2023/07/14 12:55:44;;;;;;;2.87;1.20;;;21.30;99.90;;;;;;1977371;71;25965;-91
2023/07/14 12:58:32;;;;;;;2.93;1.50;;;21.20;99.90;;;;;;2050338;69;25607;-91
2023/07/14 13:01:21;;;;;;;2.00;1.30;;;21.40;99.90;;;;;;2049913;70;25243;-91
2023/07/14 13:04:12;;;;;;;3.13;1.20;;;21.30;99.90;;;;;;2014401;70;25678;-90
2023/07/14 13:07:04;;;;;;;1.77;1.17;;;21.10;99.90;;;;;;2047614;70;26041;-91
2023/07/14 13:12:57;;;;;;;1.30;1.20;;;21.10;99.90;;;;;;1962357;72;27547;-90
2023/07/14 13:15:48;;;;;;;1.37;0.90;;;21.20;99.90;;;;;;1938154;73;25168;-90
2023/07/14 13:18:37;;;;;;;4.63;1.30;;;21.10;99.90;;;;;;1926891;73;25159;-90
2023/07/14 13:21:37;;;;;;;2.60;1.20;;;21.20;99.90;;;;;;1911753;73;25201;-90
2023/07/14 13:24:28;;;;;;;1.30;1.20;;;21.30;99.90;;;;;;1928464;73;25289;-91
2023/07/14 13:27:20;;;;;;;1.03;1.03;;;21.30;99.90;;;;;;1940802;73;25208;-91
2023/07/14 13:33:16;;;;;;;1.60;1.07;;;21.00;99.90;;;;;;1928909;72;26976;-90
2023/07/14 13:36:11;;;;;;;1.80;1.10;;;21.00;99.90;;;;;;1882833;75;25324;-90
2023/07/14 13:39:01;;;;;;;1.73;1.10;;;21.10;99.90;;;;;;1886611;75;25233;-90
2023/07/14 13:41:50;;;;;;;2.30;1.17;;;21.20;99.90;;;;;;1893485;75;25310;-90
2023/07/14 13:44:45;;;;;;;1.77;1.13;;;21.20;99.90;;;;;;1888711;75;25257;-90
2023/07/14 13:50:34;;;;;;;1.13;1.03;;;21.00;99.90;;;;;;1946147;72;27137;-90
2023/07/14 13:56:37;;;;;;;4.80;1.10;;;20.90;99.90;;;;;;1962818;71;26261;-91
2023/07/14 13:59:27;;;;;;;1.47;0.90;;;20.90;99.90;;;;;;1926088;73;25259;-91
2023/07/14 14:05:18;;;;;;;3.40;1.27;;;20.80;99.90;;;;;;1942305;72;27336;-92
2023/07/14 14:11:04;;;;;;;1.90;0.90;;;20.70;99.90;;;;;;1942021;72;27001;-90
2023/07/14 14:13:53;;;;;;;3.07;1.20;;;20.70;99.90;;;;;;1917810;72;25286;-90
2023/07/14 14:23:12;;;;;;;1.50;0.93;;;20.80;99.90;;;;;;2028189;69;26576;-91
2023/07/14 14:26:00;;;;;;;5.40;1.40;;;20.70;99.90;;;;;;1967390;72;25756;-90
2023/07/14 14:28:49;;;;;;;3.07;1.20;;;20.70;99.90;;;;;;1957208;72;25778;-90
2023/07/14 15:26:25;;;;;;;1.30;1.00;;;20.80;99.90;;;;;;1946451;72;26710;-90
2023/07/14 15:32:04;;;;;;;4.10;1.47;;;20.90;99.90;;;;;;1938142;72;27049;-90
2023/07/14 15:34:53;;;;;;;4.30;1.30;;;20.90;99.90;;;;;;1888532;75;25257;-90
2023/07/14 15:37:45;;;;;;;4.53;1.10;;;20.90;99.90;;;;;;1874644;75;25800;-91
2023/07/14 15:40:39;;;;;;;3.03;1.20;;;21.00;99.90;;;;;;1893646;75;25251;-90
2023/07/14 15:46:22;;;;;;;3.53;1.10;;;20.80;99.90;;;;;;1942355;72;26639;-91
2023/07/14 15:49:16;;;;;;;1.20;1.10;;;20.70;99.90;;;;;;1903586;73;25274;-91
2023/07/14 15:52:10;;;;;;;2.40;1.17;;;20.80;99.90;;;;;;1887189;75;25250;-91
2023/07/14 15:57:53;;;;;;;3.73;1.33;;;20.80;99.90;;;;;;1948337;72;27653;-91
2023/07/14 16:01:00;;;;;;;1.10;1.00;;;20.80;99.90;;;;;;1920901;73;25324;-91
2023/07/14 16:03:49;;;;;;;1.90;1.07;;;20.90;99.90;;;;;;1931743;73;25224;-90
2023/07/14 16:06:40;;;;;;;1.47;1.03;;;21.20;99.90;;;;;;1925937;73;25185;-90
2023/07/14 16:09:33;;;;;;;1.13;1.03;;;21.20;99.90;;;;;;1916522;73;25185;-90
2023/07/14 16:12:29;;;;;;;1.53;1.10;;;21.00;99.90;;;;;;1916150;73;25171;-90
2023/07/14 16:15:26;;;;;;;1.33;1.10;;;21.10;99.90;;;;;;1901984;73;25716;-90
2023/07/14 16:18:20;;;;;;;2.80;1.20;;;21.10;99.90;;;;;;1901522;73;25529;-91
2023/07/14 16:21:28;;;;;;;3.83;1.03;;;21.10;99.90;;;;;;1922761;73;25193;-91
2023/07/14 16:24:25;;;;;;;2.07;1.00;;;21.00;99.90;;;;;;1925406;73;25227;-91
2023/07/14 16:27:19;;;;;;;2.77;1.10;;;21.10;99.90;;;;;;1923737;73;25292;-91
2023/07/14 16:30:15;;;;;;;1.13;1.03;;;21.00;99.90;;;;;;1916173;73;25213;-91
2023/07/14 16:33:07;;;;;;;1.40;1.30;;;20.90;99.90;;;;;;1923074;73;25371;-91
2023/07/14 16:35:57;;;;;;;1.50;1.03;;;21.00;99.90;;;;;;1923482;73;25211;-91
2023/07/14 16:38:47;;;;;;;2.33;1.27;;;21.00;99.90;;;;;;1915777;73;25176;-91
2023/07/14 16:45:16;;;;;;;2.43;1.20;;;20.90;99.90;;;;;;2008207;69;27051;-91
2023/07/14 16:48:30;;;;;;;2.47;1.00;;;21.00;99.90;;;;;;1980565;71;25282;-90
2023/07/14 16:55:01;;;;;;;2.57;0.93;;;20.80;99.90;;;;;;1941715;72;27077;-90
2023/07/14 16:57:54;;;;;;;3.00;1.10;;;20.90;99.90;;;;;;1914866;73;25307;-91
2023/07/14 17:01:07;;;;;;;3.80;1.00;;;20.90;99.90;;;;;;1939903;73;25152;-91
2023/07/14 17:04:04;;;;;;;1.47;1.17;;;20.90;99.90;;;;;;1929486;73;25298;-91
2023/07/14 17:06:55;;;;;;;4.13;1.00;;;20.80;99.90;;;;;;1899639;73;25216;-91
2023/07/14 17:09:45;;;;;;;1.80;1.20;;;20.80;99.90;;;;;;1916120;73;25274;-91
2023/07/14 17:12:38;;;;;;;1.80;1.10;;;20.70;99.90;;;;;;1935802;73;25354;-91
2023/07/14 17:18:42;;;;;;;1.07;1.00;;;20.80;99.90;;;;;;1942222;72;29439;-91
2023/07/14 17:21:53;;;;;;;2.07;1.10;;;20.80;99.90;;;;;;1917345;74;25241;-91
2023/07/14 17:39:30;;;;;;;2.90;1.40;;;20.40;99.90;;;;;;1923317;73;25299;-91
2023/07/14 18:00:44;;;;;;;1.30;1.20;;;19.60;99.90;;;;;;1993730;71;29532;-91
2023/07/14 18:07:20;;;;;;;2.73;1.20;;;19.50;99.90;;;;;;1960596;72;25281;-91
2023/07/14 18:10:15;;;;;;;2.70;1.33;;;19.40;99.90;;;;;;2043078;69;25302;-91
2023/07/14 18:13:12;;;;;;;1.50;1.20;;;19.30;99.90;;;;;;2044450;69;25248;-91
2023/07/14 18:16:13;;;;;;;1.97;1.30;;;19.30;99.90;;;;;;2031892;69;25199;-91
2023/07/14 18:19:50;;;;;;;3.60;1.43;;;19.20;99.90;;;;;;2056728;69;25226;-91
2023/07/14 18:22:58;;;;;;;1.30;1.20;;;19.20;99.90;;;;;;2055785;69;25185;-91
2023/07/14 18:25:52;;;;;;;2.63;1.40;;;19.20;99.90;;;;;;2033949;69;25564;-91
2023/07/14 18:29:07;;;;;;;2.83;1.20;;;19.20;99.90;;;;;;2066078;69;25559;-91
2023/07/14 18:32:11;;;;;;;1.80;1.40;;;19.20;99.90;;;;;;2055723;69;25213;-91
2023/07/14 18:38:31;;;;;;;1.40;1.30;;;19.10;99.90;;;;;;1967472;72;27494;-91
2023/07/14 20:08:56;;;;;;;2.10;1.40;;;17.50;99.90;;;;;;1855680;75;30067;-90
2023/07/14 20:19:06;;;;;;;6.33;1.63;;;17.10;99.90;;;;;;1915014;73;25797;-91
2023/07/14 20:22:01;;;;;;;3.90;1.47;;;17.10;99.90;;;;;;1920009;73;25157;-90
2023/07/14 20:25:17;;;;;;;3.50;1.40;;;17.00;99.90;;;;;;1929787;73;25151;-91
2023/07/14 20:28:26;;;;;;;2.37;1.43;;;17.00;99.90;;;;;;1905625;73;25309;-91
2023/07/14 20:48:32;;;;;;;1.93;1.60;;;16.60;99.90;;;;;;1950448;72;27528;-91
2023/07/14 20:51:48;;;;;;;4.77;1.93;;;16.60;99.90;;;;;;1891486;73;25857;-91
2023/07/14 20:59:01;;;;;;;4.00;1.50;;;16.50;99.90;;;;;;1928020;73;25658;-91
2023/07/14 21:20:03;;;;;;;3.50;1.40;;;16.40;99.90;;;;;;1915166;74;28873;-91
2023/07/14 22:41:34;;;;;;;1.70;1.43;;;15.40;99.90;;;;;;1929342;73;25261;-91
2023/07/14 23:29:24;;;;;;;3.93;1.67;;;15.10;99.90;;;;;;1877532;75;29023;-90
